Anderson, South Dakota
Current Conditions -  °F | °C
As of 10:53 AM on Monday 24 Nov 2014 (Local Time) from KHEI Reporting Station
Clear Clear  
Wind Chill: -12°   Ceiling: Unl
Heat Index: -6°   Visibility: 10mi
Dew Point: -9°   Wind: 12mph
Humidity: 75%   Direction: 300°WNW
Pressure: 29.92"   Gusts: NA
Location:  45.2919°N, 102.298°W
Report Text: KHEI 241753Z AUTO 30010KT 10SM CLR M06/M09 A2992 RMK AO2 SLP171 I6000 T10561094 11056 21111 51021
Loading
Personal Weather Stations






























Interactive Weather Map New forecast layout! Learn more

10-Day Weather Forecast

Advertisements
Track Severe Weather on mobile